Terminal Aerodrome Forecast
Issued by NWS

Home | Current Version | Previous Version | Text Only | Print | Product List | Glossary On
Versions: 1 2 3 4 5 6 7 8 9 10 11 12 13 14 15 16 17 18 19 20 21 22 23 24
000
FTUS43 KGLD 051120
TAFMCK
TAF
KMCK 051120Z 0512/0612 19010KT P6SM BKN250 WS020/19040KT
     FM051600 18018G28KT P6SM SCT100 BKN250
     FM060100 17010G16KT P6SM VCSH SCT080 BKN250=

USA.gov is the U.S. government's official web portal to all federal, state and local government web resources and services.